Latest Weather Observations for Nullo Mountain

IDN60801

Issued at 10:32 am EST Tuesday 25 April 2017 (issued every 30 minutes, with the page automatically refreshed every 10 minutes)

About weather observations | Map of weather stations | Latest weather observations for NSW | Other Formats
Station Details ID: 062100 Name: NULLO MOUNTAIN AWS Lat: -32.72 Lon: 150.23 Height: 1130.0 m
Data from the previous 72 hours. | See also: Recent months at Nullo Mountain
Date/Time
EST
Temp
°C
App
Temp
°C
Dew
Point
°C
Rel
Hum
%
Delta-T
°C
Wind Press
QNH
hPa
Press
MSL
hPa
Rain since
9am
mm
Dir  Spd
km/h
Gust
km/h
Spd
kts
Gust
kts
25/10:30am 14.9 11.2 10.3 74 2.6 N 20 37 11 20 - - 0.0
25/10:00am 14.2 10.7 10.2 77 2.2 NNW 19 32 10 17 - - 0.0
25/09:30am 14.3 9.8 9.9 75 2.4 N 24 35 13 19 - - 0.0
25/09:00am 14.7 10.2 10.1 74 2.5 N 24 35 13 19 - - 0.0
25/08:30am 14.4 10.5 9.4 72 2.7 NNW 20 32 11 17 - - 0.0
25/08:00am 14.3 10.9 9.3 72 2.7 NNW 17 33 9 18 - - 0.0
25/07:30am 14.2 10.3 8.8 70 2.9 NNW 19 32 10 17 - - 0.0
25/07:00am 14.2 10.7 8.8 70 2.9 N 17 28 9 15 - - 0.0
25/06:30am 14.3 10.8 8.9 70 2.9 N 17 24 9 13 - - 0.0
25/06:00am 14.1 10.7 9.1 72 2.7 N 17 28 9 15 - - 0.0
25/05:30am 13.7 10.4 9.4 75 2.3 N 17 24 9 13 - - 0.0
25/05:00am 13.7 10.7 9.4 75 2.3 N 15 24 8 13 - - 0.0
25/04:30am 13.6 10.6 9.3 75 2.3 N 15 20 8 11 - - 0.0
25/04:00am 13.0 10.3 8.9 76 2.2 N 13 19 7 10 - - 0.0
25/03:30am 13.1 10.9 9.2 77 2.1 N 11 17 6 9 - - 0.0
25/03:00am 12.7 10.7 8.8 77 2.1 N 9 15 5 8 - - 0.0
25/02:30am 13.3 10.6 8.8 74 2.4 N 13 19 7 10 - - 0.0
25/02:00am 12.9 10.9 8.6 75 2.3 N 9 13 5 7 - - 0.0
25/01:30am 12.9 11.3 8.6 75 2.3 N 7 11 4 6 - - 0.0
25/01:00am 12.6 11.1 8.5 76 2.2 N 6 9 3 5 - - 0.0
25/12:30am 13.2 11.3 9.1 76 2.2 N 9 13 5 7 - - 0.0
25/12:00am 12.4 10.7 8.3 76 2.2 NNE 7 9 4 5 - - 0.0
 
Date/Time
EST
Temp
°C
App
Temp
°C
Dew
Point
°C
Rel
Hum
%
Delta-T
°C
Wind Press
QNH
hPa
Press
MSL
hPa
Rain since
9am
mm
Dir  Spd
km/h
Gust
km/h
Spd
kts
Gust
kts
24/11:30pm 12.4 11.3 8.3 76 2.2 N 4 6 2 3 - - 0.0
24/11:00pm 12.5 11.0 8.6 77 2.1 N 6 6 3 3 - - 0.0
24/10:30pm 12.8 11.7 8.5 75 2.3 N 4 6 2 3 - - 0.0
24/10:00pm 13.0 12.0 8.9 76 2.2 N 4 6 2 3 - - 0.0
24/09:30pm 13.2 12.3 9.1 76 2.2 N 4 6 2 3 - - 0.0
24/09:00pm 13.1 12.6 9.2 77 2.1 N 2 4 1 2 - - 0.0
24/08:30pm 12.7 12.6 9.3 80 1.8 CALM 0 0 0 0 - - 0.0
24/08:00pm 12.7 12.5 9.0 78 2.0 CALM 0 2 0 1 - - 0.0
24/07:30pm 13.3 12.8 9.2 76 2.2 NNE 2 4 1 2 - - 0.0
24/07:00pm 13.3 12.5 9.5 78 2.1 NNE 4 6 2 3 - - 0.0
24/06:30pm 13.5 12.4 10.1 80 1.9 NNE 6 9 3 5 - - 0.0
24/06:00pm 13.6 12.9 10.2 80 1.9 NNE 4 7 2 4 - - 0.0
24/05:30pm 14.0 13.0 10.2 78 2.1 NE 6 7 3 4 - - 0.0
24/05:00pm 14.4 13.4 10.4 77 2.2 NNE 6 9 3 5 - - 0.0
24/04:30pm 14.8 14.1 10.2 74 2.5 NNE 4 6 2 3 - - 0.0
24/04:00pm 15.5 14.5 10.3 71 2.9 NNE 6 7 3 4 - - 0.0
24/03:30pm 15.9 14.1 9.6 66 3.5 N 9 11 5 6 - - 0.0
24/03:00pm 16.2 14.3 9.2 63 3.8 NNE 9 15 5 8 - - 0.0
24/02:30pm 15.5 14.6 10.5 72 2.8 NNE 6 9 3 5 - - 0.0
24/02:00pm 15.2 14.7 10.8 75 2.5 N 4 7 2 4 - - 0.0
24/01:30pm 15.2 15.2 11.2 77 2.3 NE 2 4 1 2 - - 0.0
24/01:00pm 14.5 13.6 10.7 78 2.1 ESE 6 7 3 4 - - 0.0
24/12:30pm 14.6 13.9 10.0 74 2.5 ESE 4 6 2 3 - - 0.0
24/12:00pm 14.4 13.2 10.2 76 2.3 SE 7 9 4 5 - - 0.0
24/11:30am 14.3 13.2 10.7 79 2.0 ESE 7 13 4 7 - - 0.0
24/11:00am 14.5 13.5 10.9 79 2.0 SE 7 9 4 5 - - 0.0
24/10:30am 15.6 14.8 11.2 75 2.5 ESE 6 9 3 5 - - 0.0
24/10:00am 14.8 13.9 11.2 79 2.0 SE 7 11 4 6 - - 0.0
24/09:30am 15.5 14.8 11.5 77 2.3 NE 6 7 3 4 - - 0.0
24/09:00am 14.1 13.4 11.4 84 1.5 E 6 7 3 4 - - 0.0
24/08:30am 13.4 12.6 11.6 89 1.0 E 7 9 4 5 - - 0.0
24/08:00am 12.8 12.0 11.7 93 0.6 E 7 9 4 5 - - 0.0
24/07:30am 11.7 10.8 11.5 99 0.1 E 7 9 4 5 - - 0.0
24/07:00am 9.7 8.9 9.6 99 0.1 E 4 4 2 2 - - 0.0
24/06:30am 9.0 8.0 8.7 98 0.2 E 4 6 2 3 - - 0.0
24/06:00am 9.3 8.7 9.0 98 0.2 ENE 2 4 1 2 - - 0.0
24/05:30am 9.7 8.8 9.4 98 0.2 E 4 4 2 2 - - 0.0
24/05:00am 9.8 9.3 9.3 97 0.3 E 2 4 1 2 - - 0.0
24/04:30am 9.7 9.2 9.4 98 0.2 NE 2 4 1 2 - - 0.0
24/04:00am 9.8 9.0 9.5 98 0.2 E 4 6 2 3 - - 0.0
24/03:30am 9.6 8.3 9.3 98 0.2 ESE 6 6 3 3 - - 0.0
24/03:00am 9.3 8.3 8.8 97 0.3 ESE 4 6 2 3 - - 0.0
24/02:30am 9.4 8.5 9.3 99 0.1 ESE 4 6 2 3 - - 0.0
24/02:00am 8.8 7.6 8.2 96 0.3 E 4 6 2 3 - - 0.0
24/01:30am 8.8 7.2 8.2 96 0.3 ESE 6 6 3 3 - - 0.0
24/01:00am 9.6 8.3 9.1 97 0.3 E 6 7 3 4 - - 0.0
24/12:30am 9.8 8.5 9.2 96 0.3 E 6 9 3 5 - - 0.0
24/12:00am 10.1 8.9 9.5 96 0.3 E 6 7 3 4 - - 0.0
 
Date/Time
EST
Temp
°C
App
Temp
°C
Dew
Point
°C
Rel
Hum
%
Delta-T
°C
Wind Press
QNH
hPa
Press
MSL
hPa
Rain since
9am
mm
Dir  Spd
km/h
Gust
km/h
Spd
kts
Gust
kts
23/11:30pm 9.7 8.7 8.8 94 0.5 E 4 6 2 3 - - 0.0
23/11:00pm 9.7 8.9 8.0 89 0.9 ENE 2 4 1 2 - - 0.0
23/10:30pm 11.9 10.1 9.6 86 1.2 ESE 9 15 5 8 - - 0.0
23/10:00pm 11.8 10.0 9.5 86 1.2 E 9 13 5 7 - - 0.0
23/09:30pm 12.2 10.4 9.6 84 1.4 ESE 9 15 5 8 - - 0.0
23/09:00pm 11.5 9.9 8.9 84 1.4 ESE 7 11 4 6 - - 0.0
23/08:30pm 11.0 9.5 8.6 85 1.3 ESE 6 7 3 4 - - 0.0
23/08:00pm 10.6 9.1 8.4 86 1.1 ESE 6 7 3 4 - - 0.0
23/07:30pm 11.7 10.3 9.4 86 1.2 SE 7 9 4 5 - - 0.0
23/07:00pm 10.8 9.7 8.4 85 1.3 ESE 4 6 2 3 - - 0.0
23/06:30pm 12.3 11.3 9.0 80 1.8 N 4 6 2 3 - - 0.0
23/06:00pm 12.8 12.3 9.4 80 1.8 N 2 4 1 2 - - 0.0
23/05:30pm 13.1 12.7 9.7 80 1.8 N 2 4 1 2 - - 0.0
23/05:00pm 13.9 13.6 10.1 78 2.1 N 2 2 1 1 - - 0.0
23/04:30pm 14.7 14.0 9.9 73 2.6 N 4 6 2 3 - - 0.0
23/04:00pm 15.2 15.3 10.2 72 2.8 CALM 0 2 0 1 - - 0.0
23/03:30pm 15.3 15.4 10.1 71 2.9 CALM 0 0 0 0 - - 0.0
23/03:00pm 15.1 15.2 10.1 72 2.8 CALM 0 0 0 0 - - 0.0
23/02:30pm 15.2 14.3 9.3 68 3.2 SE 4 7 2 4 - - 0.0
23/02:00pm 16.6 15.1 9.3 62 4.0 NNW 7 11 4 6 - - 0.0
23/01:30pm 16.4 15.1 9.3 63 3.9 NNE 6 9 3 5 - - 0.0
23/01:00pm 15.4 14.3 10.6 73 2.7 N 7 11 4 6 - - 0.0
23/12:30pm 15.1 13.9 9.7 70 3.0 N 6 7 3 4 - - 0.0
23/12:00pm 15.9 14.8 7.1 56 4.6 W 2 7 1 4 - - 0.0
23/11:30am 16.7 15.6 10.5 67 3.5 NNW 7 11 4 6 - - 0.0
23/11:00am 16.4 15.0 7.1 54 4.9 E 4 7 2 4 - - 0.0
23/10:30am 15.7 13.8 7.5 58 4.3 E 7 13 4 7 - - 0.0
23/10:00am 16.1 14.8 9.1 63 3.8 E 6 11 3 6 - - 0.0
23/09:30am 15.7 14.3 8.9 64 3.7 ENE 6 7 3 4 - - 0.0
23/09:00am 14.8 13.9 9.4 70 2.9 ESE 4 7 2 4 - - 0.2
23/08:30am 14.0 12.5 8.6 70 2.9 SE 6 7 3 4 - - 0.2
23/08:00am 13.0 11.7 9.1 77 2.1 SSE 6 7 3 4 - - 0.2
23/07:30am 11.6 10.2 8.8 83 1.5 SSE 6 9 3 5 - - 0.2
23/07:00am 10.5 8.8 8.4 87 1.1 SSE 7 11 4 6 - - 0.2
23/06:30am 10.1 8.3 8.0 87 1.1 S 7 9 4 5 - - 0.2
23/06:00am 9.1 7.5 7.9 92 0.6 S 6 7 3 4 - - 0.2
23/05:30am 10.6 9.1 8.5 87 1.1 SSE 6 7 3 4 - - 0.2
23/05:00am 10.7 9.0 8.5 86 1.2 S 7 11 4 6 - - 0.2
23/04:30am 9.3 7.8 8.5 95 0.4 S 6 9 3 5 - - 0.2
23/04:00am 8.8 7.1 7.6 92 0.6 SSW 6 7 3 4 - - 0.2
23/03:30am 9.4 7.9 8.3 93 0.6 SSW 6 7 3 4 - - 0.0
23/03:00am 10.1 8.6 9.3 95 0.4 SSW 7 9 4 5 - - 0.0
23/02:30am 9.7 8.7 8.8 94 0.5 SW 4 6 2 3 - - 0.0
23/02:00am 9.0 8.0 8.7 98 0.2 SW 4 6 2 3 - - 0.0
23/01:30am 8.7 7.9 8.3 97 0.2 WSW 2 4 1 2 - - 0.0
23/01:00am 9.6 9.5 9.5 99 0.1 CALM 0 0 0 0 - - 0.0
23/12:30am 9.9 9.9 9.8 99 0.1 CALM 0 0 0 0 - - 0.0
23/12:00am 9.8 9.8 9.7 99 0.1 CALM 0 0 0 0 - - 0.0
 
Date/Time
EST
Temp
°C
App
Temp
°C
Dew
Point
°C
Rel
Hum
%
Delta-T
°C
Wind Press
QNH
hPa
Press
MSL
hPa
Rain since
9am
mm
Dir  Spd
km/h
Gust
km/h
Spd
kts
Gust
kts
22/11:30pm 9.5 9.3 9.2 98 0.2 CALM 0 0 0 0 - - 0.0
22/11:00pm 9.7 9.5 9.2 97 0.3 CALM 0 0 0 0 - - 0.0
22/10:30pm 10.1 10.0 9.5 96 0.3 CALM 0 2 0 1 - - 0.0
22/10:00pm 9.9 9.8 9.6 98 0.2 CALM 0 0 0 0 - - 0.0
22/09:30pm 9.7 9.5 8.9 95 0.4 CALM 0 0 0 0 - - 0.0
22/09:00pm 9.9 9.4 9.3 96 0.3 SW 2 2 1 1 - - 0.0
22/08:30pm 9.7 9.5 8.9 95 0.4 CALM 0 0 0 0 - - 0.0
22/08:00pm 10.1 10.0 9.3 95 0.4 CALM 0 0 0 0 - - 0.0
22/07:30pm 10.3 10.3 9.8 97 0.3 CALM 0 0 0 0 - - 0.0
22/07:00pm 10.4 10.4 9.8 96 0.3 CALM 0 0 0 0 - - 0.0
22/06:30pm 11.4 11.6 10.5 94 0.5 CALM 0 0 0 0 - - 0.0
22/06:00pm 12.4 12.6 10.6 89 1.0 CALM 0 0 0 0 - - 0.0
22/05:30pm 12.7 12.9 10.6 87 1.2 CALM 0 0 0 0 - - 0.0
22/05:00pm 13.2 12.7 10.6 84 1.4 NNW 4 6 2 3 - - 0.0
22/04:30pm 13.6 13.6 11.0 84 1.5 NW 2 4 1 2 - - 0.0
22/04:00pm 13.7 13.8 11.4 86 1.3 NNW 2 6 1 3 - - 0.0
22/03:30pm 13.5 13.0 10.7 83 1.6 NNW 4 7 2 4 - - 0.0
22/03:00pm 13.7 13.4 10.1 79 2.0 NNW 2 6 1 3 - - 0.0
22/02:30pm 13.9 12.8 9.9 77 2.2 NNW 6 6 3 3 - - 0.0
22/02:00pm 14.2 13.8 9.6 74 2.5 NW 2 6 1 3 - - 0.0
22/01:30pm 14.1 13.4 10.1 77 2.2 NW 4 7 2 4 - - 0.0
22/01:00pm 13.9 12.7 9.5 75 2.4 WNW 6 19 3 10 - - 0.0
22/12:30pm 14.2 13.0 9.6 74 2.5 WSW 6 9 3 5 - - 0.0
22/12:00pm 14.7 13.6 10.5 76 2.3 WSW 7 13 4 7 - - 0.0
22/11:30am 16.3 15.4 11.5 73 2.7 NW 7 13 4 7 - - 0.0
22/11:00am 14.7 13.8 10.5 76 2.3 WNW 6 7 3 4 - - 0.0

Other Formats:

Comma delimited format used in spreadsheet applications
http://www.bom.gov.au/fwo/IDN60801/IDN60801.94754.axf

JavaScript Object Notation format (JSON) in row-major order
http://www.bom.gov.au/fwo/IDN60801/IDN60801.94754.json